Time;durP1;ratioP1;P1;durP2;ratioP2;P2;SDS_P1;SDS_P2;PMS_P1;PMS_P2;Temp;Humidity;BMP_temperature;BMP_pressure;BME280_temperature;BME280_humidity;BME280_pressure;Samples;Min_cycle;Max_cycle;Signal;HPM_P1;HPM_P2
2022/06/25 07:39:55;;;;;;;5.47;1.25;;;;;;;24.28;46.82;99516.36;1610484;87;21842;-81
2022/06/25 07:42:22;;;;;;;4.03;2.08;;;;;;;24.41;45.49;99518.78;1618501;88;21222;-83
2022/06/25 07:44:48;;;;;;;3.70;1.37;;;;;;;24.45;44.68;99519.34;1618749;88;21161;-81
2022/06/25 07:47:15;;;;;;;1.37;1.27;;;;;;;24.47;44.52;99515.50;1628376;88;21063;-80
2022/06/25 07:52:28;;;;;;;1.75;1.22;;;;;;;24.54;44.17;99509.56;1635101;86;21114;-83
2022/06/25 07:54:54;;;;;;;1.52;1.30;;;;;;;24.65;44.31;99513.48;1628037;86;21078;-80
2022/06/25 07:57:20;;;;;;;2.17;1.20;;;;;;;24.76;43.78;99520.53;1608098;86;21313;-82
2022/06/25 07:59:47;;;;;;;2.35;1.70;;;;;;;24.86;43.90;99521.36;1618333;88;21063;-83
2022/06/25 08:02:13;;;;;;;3.83;1.47;;;;;;;24.96;43.43;99515.96;1608184;86;21032;-82
2022/06/25 08:04:40;;;;;;;1.98;1.40;;;;;;;25.05;43.06;99520.48;1618249;85;21609;-82
2022/06/25 08:07:06;;;;;;;2.20;1.47;;;;;;;25.13;43.94;99515.22;1618665;85;21138;-77
2022/06/25 08:09:34;;;;;;;1.20;1.10;;;;;;;25.19;42.29;99521.34;1618708;86;21539;-78
2022/06/25 08:12:03;;;;;;;1.25;1.10;;;;;;;25.17;41.73;99520.66;1623682;86;21075;-82
2022/06/25 08:14:30;;;;;;;1.50;1.20;;;;;;;25.10;41.58;99523.59;1611455;86;21102;-81
2022/06/25 08:16:56;;;;;;;2.20;1.20;;;;;;;25.00;42.09;99518.22;1615127;86;21019;-80
2022/06/25 08:19:23;;;;;;;3.58;1.37;;;;;;;25.00;42.32;99516.04;1618541;88;21603;-82
2022/06/25 08:21:49;;;;;;;4.58;1.30;;;;;;;25.01;42.48;99523.94;1628180;88;21289;-83
2022/06/25 08:24:16;;;;;;;1.98;1.60;;;;;;;25.02;42.27;99519.43;1618604;88;21857;-82
2022/06/25 08:26:43;;;;;;;4.72;1.72;;;;;;;25.02;42.57;99518.08;1619283;88;21550;-82
2022/06/25 08:29:10;;;;;;;1.30;1.20;;;;;;;25.09;42.50;99512.45;1628326;88;21028;-84
2022/06/25 08:31:36;;;;;;;3.65;1.42;;;;;;;25.22;42.90;99512.98;1619018;88;21543;-81
2022/06/25 08:34:02;;;;;;;2.35;1.32;;;;;;;25.33;42.66;99510.62;1618942;88;21155;-83
2022/06/25 08:36:29;;;;;;;2.40;1.57;;;;;;;25.38;41.95;99511.52;1618868;88;21047;-82
2022/06/25 08:38:56;;;;;;;2.47;1.65;;;;;;;25.32;41.11;99517.53;1626558;87;21062;-80
2022/06/25 08:41:24;;;;;;;2.15;1.40;;;;;;;25.24;41.48;99517.38;1637230;87;21089;-81
2022/06/25 08:43:51;;;;;;;3.08;1.50;;;;;;;25.24;42.19;99519.56;1609512;87;21097;-83
2022/06/25 08:46:19;;;;;;;7.37;1.45;;;;;;;25.30;42.15;99512.77;1637131;87;39086;-82
2022/06/25 08:48:49;;;;;;;2.80;1.45;;;;;;;25.39;41.54;99518.63;1637215;87;21122;-82
2022/06/25 08:51:18;;;;;;;3.27;1.10;;;;;;;25.51;41.72;99526.01;1637369;87;21089;-83
2022/06/25 08:53:45;;;;;;;9.55;1.40;;;;;;;25.66;41.64;99522.33;1636994;87;21034;-82
2022/06/25 08:56:11;;;;;;;3.60;1.55;;;;;;;25.85;41.33;99513.27;1637420;87;21115;-81
2022/06/25 08:58:39;;;;;;;7.83;1.45;;;;;;;26.01;41.67;99501.83;1609745;87;21122;-82
2022/06/25 09:01:06;;;;;;;3.05;1.30;;;;;;;26.10;40.86;99504.46;1637343;87;21471;-80
2022/06/25 09:03:32;;;;;;;4.15;1.70;;;;;;;26.13;39.75;99503.32;1637317;87;21444;-81
2022/06/25 09:06:12;;;;;;;5.08;1.82;;;;;;;26.05;39.96;99500.55;1636867;87;21107;-83
2022/06/25 09:08:38;;;;;;;5.97;1.72;;;;;;;26.03;40.27;99510.64;1636931;87;21545;-82
2022/06/25 09:11:05;;;;;;;2.15;1.57;;;;;;;26.05;40.37;99511.33;1637589;87;21696;-81
2022/06/25 09:13:32;;;;;;;1.75;1.40;;;;;;;26.15;40.49;99505.36;1637161;87;21684;-81
2022/06/25 09:15:58;;;;;;;2.37;1.40;;;;;;;26.29;40.62;99508.01;1637047;87;21003;-81
2022/06/25 09:18:25;;;;;;;2.02;1.55;;;;;;;26.40;41.28;99506.94;1637274;87;21028;-81
2022/06/25 09:21:07;;;;;;;3.00;1.20;;;;;;;26.46;40.08;99509.00;1640895;86;21019;-81
2022/06/25 09:23:39;;;;;;;7.92;1.20;;;;;;;26.47;40.39;99514.23;1637035;86;21209;-82
2022/06/25 09:26:08;;;;;;;1.85;1.40;;;;;;;26.43;40.21;99504.77;1633577;87;21046;-81
2022/06/25 09:28:41;;;;;;;2.50;1.40;;;;;;;26.39;40.05;99502.53;1637358;87;22061;-81
2022/06/25 09:31:08;;;;;;;1.42;1.32;;;;;;;26.45;40.35;99508.16;1637022;87;21126;-80
2022/06/25 09:33:36;;;;;;;5.47;1.30;;;;;;;26.57;40.40;99512.80;1637379;87;21090;-81
2022/06/25 09:36:04;;;;;;;3.20;1.37;;;;;;;26.68;40.94;99508.55;1668779;85;21581;-82
2022/06/25 09:38:31;;;;;;;1.60;1.20;;;;;;;26.75;39.73;99511.47;1680617;85;21229;-81
2022/06/25 09:40:59;;;;;;;3.47;1.40;;;;;;;26.74;39.67;99508.92;1674388;85;21039;-82
2022/06/25 09:43:28;;;;;;;1.60;1.50;;;;;;;26.69;39.61;99510.23;1689279;84;21055;-81
2022/06/25 09:45:56;;;;;;;5.70;1.40;;;;;;;26.74;40.05;99509.77;1689335;84;21058;-82
2022/06/25 09:48:30;;;;;;;4.50;1.17;;;;;;;26.84;40.15;99508.31;1689195;84;21614;-83
2022/06/25 09:51:23;;;;;;;4.03;1.37;;;;;;;26.92;39.45;99508.38;1689405;84;21012;-80
2022/06/25 09:53:57;;;;;;;1.77;1.32;;;;;;;26.96;39.71;99507.55;1689133;84;21069;-80
2022/06/25 09:56:32;;;;;;;2.25;1.40;;;;;;;26.99;39.25;99505.37;1689265;84;20975;-82
2022/06/25 09:58:59;;;;;;;3.95;1.30;;;;;;;27.04;39.32;99513.84;1689194;84;21719;-81
2022/06/25 10:01:28;;;;;;;4.58;1.40;;;;;;;27.05;38.84;99514.71;1688960;84;21991;-82
2022/06/25 10:03:56;;;;;;;1.27;1.15;;;;;;;27.04;38.17;99515.19;1689139;84;21379;-82
2022/06/25 10:06:24;;;;;;;2.33;1.30;;;;;;;26.99;38.29;99515.34;1689107;84;21077;-83
2022/06/25 10:08:57;;;;;;;1.70;1.37;;;;;;;26.92;38.17;99511.08;1689597;84;21141;-82
2022/06/25 10:11:29;;;;;;;3.37;1.20;;;;;;;26.82;38.77;99504.42;1689333;84;21081;-81
2022/06/25 10:13:55;;;;;;;6.08;1.30;;;;;;;26.78;38.62;99504.89;1689351;84;21901;-80
2022/06/25 10:16:26;;;;;;;1.57;1.30;;;;;;;26.68;38.30;99509.90;1688927;84;21106;-81
2022/06/25 10:18:54;;;;;;;2.27;1.40;;;;;;;26.57;38.03;99507.92;1689433;84;21592;-80
2022/06/25 10:21:22;;;;;;;1.90;1.32;;;;;;;26.53;38.22;99504.70;1689025;84;21495;-82
2022/06/25 10:23:53;;;;;;;3.02;1.60;;;;;;;26.54;38.62;99500.97;1689234;84;21074;-82
2022/06/25 10:26:20;;;;;;;1.00;1.00;;;;;;;26.57;38.79;99499.83;1688334;84;21769;-80
2022/06/25 10:28:47;;;;;;;1.37;1.27;;;;;;;26.62;39.03;99505.09;1688941;84;21585;-83
2022/06/25 10:31:16;;;;;;;5.78;1.40;;;;;;;26.61;38.69;99503.41;1689376;84;21113;-83
2022/06/25 10:34:03;;;;;;;1.52;1.30;;;;;;;26.59;38.53;99497.30;1689114;84;21000;-81
2022/06/25 10:36:47;;;;;;;4.72;1.32;;;;;;;26.58;38.45;99502.38;1689470;84;21006;-82
2022/06/25 10:39:29;;;;;;;2.15;0.95;;;;;;;26.56;38.98;99496.26;1689101;84;21140;-82
2022/06/25 10:45:07;;;;;;;2.22;1.60;;;;;;;26.57;38.80;99503.36;1689144;84;21063;-80
2022/06/25 10:47:53;;;;;;;3.30;1.67;;;;;;;26.53;39.39;99499.30;1689406;84;21125;-82
2022/06/25 10:50:30;;;;;;;4.15;1.45;;;;;;;26.52;39.24;99502.98;1689322;84;21053;-81
2022/06/25 10:53:11;;;;;;;2.40;1.65;;;;;;;26.46;38.96;99500.90;1688874;84;21146;-81
2022/06/25 10:55:52;;;;;;;3.20;1.47;;;;;;;26.54;39.70;99505.02;1689206;84;21537;-82
2022/06/25 10:58:26;;;;;;;10.18;4.80;;;;;;;26.74;39.90;99495.43;1689174;84;21105;-81
2022/06/25 11:01:03;;;;;;;4.80;2.33;;;;;;;26.90;39.22;99496.03;1686445;84;21137;-82
2022/06/25 11:03:38;;;;;;;7.40;5.42;;;;;;;26.96;38.57;99498.94;1689406;84;21018;-81
2022/06/25 11:06:35;;;;;;;7.20;2.90;;;;;;;26.95;38.19;99494.56;1689005;84;21059;-83
2022/06/25 11:09:14;;;;;;;3.10;1.45;;;;;;;26.91;37.78;99494.52;1689314;84;21019;-80
2022/06/25 11:11:44;;;;;;;2.12;1.22;;;;;;;26.86;37.64;99497.72;1689139;84;21097;-83
2022/06/25 11:14:16;;;;;;;2.62;1.40;;;;;;;26.77;37.07;99500.00;1689327;84;22324;-83
2022/06/25 11:16:43;;;;;;;3.47;1.20;;;;;;;26.72;37.35;99504.19;1689126;84;21101;-81
2022/06/25 11:19:10;;;;;;;3.30;1.22;;;;;;;26.69;37.90;99496.73;1688992;84;21160;-82
2022/06/25 11:21:39;;;;;;;4.10;1.92;;;;;;;26.68;37.91;99501.80;1688804;84;21105;-82
2022/06/25 11:24:24;;;;;;;3.92;1.32;;;;;;;26.65;37.73;99499.92;1689144;84;21109;-83
2022/06/25 11:29:48;;;;;;;1.95;1.57;;;;;;;26.73;36.97;99498.64;1683704;84;21008;-80
2022/06/25 11:32:23;;;;;;;2.67;1.40;;;;;;;26.70;37.25;99489.50;1661285;86;21152;-83
2022/06/25 11:34:59;;;;;;;8.43;1.20;;;;;;;26.75;37.65;99498.45;1661565;86;21571;-82
2022/06/25 11:37:27;;;;;;;1.67;1.50;;;;;;;26.75;36.79;99495.75;1644360;84;21038;-80
2022/06/25 11:39:53;;;;;;;3.72;1.30;;;;;;;26.79;36.98;99497.15;1652807;84;21570;-82
2022/06/25 11:42:21;;;;;;;1.25;1.15;;;;;;;26.91;38.24;99493.69;1637238;87;21580;-83
2022/06/25 11:44:50;;;;;;;1.55;1.15;;;;;;;27.08;39.20;99492.77;1637526;87;21607;-81
2022/06/25 11:47:22;;;;;;;1.55;1.27;;;;;;;27.24;38.46;99492.02;1636890;86;21099;-81
2022/06/25 11:49:49;;;;;;;1.82;1.20;;;;;;;27.31;37.86;99495.80;1637029;87;21003;-81
2022/06/25 11:52:18;;;;;;;1.62;1.02;;;;;;;27.35;37.29;99495.83;1637319;87;21061;-82
2022/06/25 11:54:46;;;;;;;1.47;1.10;;;;;;;27.36;36.07;99490.75;1637002;87;21063;-80
2022/06/25 11:57:19;;;;;;;2.77;1.25;;;;;;;27.40;37.04;99495.31;1637142;86;21141;-80
2022/06/25 11:59:46;;;;;;;3.95;1.37;;;;;;;27.47;37.27;99484.23;1636476;87;21150;-81
2022/06/25 12:02:12;;;;;;;1.17;1.10;;;;;;;27.59;37.40;99488.83;1637204;87;21071;-80
2022/06/25 12:04:57;;;;;;;2.52;1.20;;;;;;;27.74;36.98;99488.53;1637269;87;21039;-79
2022/06/25 12:07:29;;;;;;;1.47;1.37;;;;;;;27.92;37.23;99485.71;1637106;87;21090;-81
2022/06/25 12:09:59;;;;;;;3.02;1.20;;;;;;;28.17;36.10;99478.48;1636690;87;21125;-81
2022/06/25 12:12:26;;;;;;;1.67;1.22;;;;;;;28.28;36.74;99481.89;1636511;87;21065;-81
2022/06/25 12:14:54;;;;;;;3.35;1.50;;;;;;;28.38;36.64;99482.58;1609356;87;21082;-82
2022/06/25 12:17:20;;;;;;;2.30;2.08;;;;;;;28.37;33.88;99478.16;1636977;87;21063;-79
2022/06/25 12:19:52;;;;;;;3.72;1.75;;;;;;;28.30;34.39;99480.70;1637100;87;21026;-79
2022/06/25 12:22:27;;;;;;;5.62;1.52;;;;;;;28.31;34.96;99485.59;1637280;87;21126;-81
2022/06/25 12:25:00;;;;;;;3.47;1.17;;;;;;;28.37;35.24;99482.22;1636720;87;21007;-81
2022/06/25 12:27:26;;;;;;;1.32;1.22;;;;;;;28.46;35.10;99486.64;1637283;87;21089;-81
2022/06/25 12:29:56;;;;;;;1.17;0.85;;;;;;;28.42;33.47;99482.55;1636951;87;21094;-81
2022/06/25 12:32:41;;;;;;;3.00;1.10;;;;;;;28.31;33.88;99478.83;1637048;87;21660;-82
2022/06/25 12:35:21;;;;;;;4.50;1.10;;;;;;;28.23;34.38;99482.91;1637035;87;21085;-79
2022/06/25 12:38:14;;;;;;;3.10;1.25;;;;;;;28.10;33.80;99479.34;1637259;87;21644;-81
2022/06/25 12:40:45;;;;;;;1.27;1.10;;;;;;;28.02;34.44;99477.45;1636079;87;21105;-82
2022/06/25 12:43:13;;;;;;;7.45;1.20;;;;;;;28.12;34.92;99475.44;1625329;88;21187;-83
2022/06/25 12:45:44;;;;;;;6.67;3.60;;;;;;;28.28;34.22;99468.37;1637009;86;21177;-82
2022/06/25 12:48:12;;;;;;;7.65;1.47;;;;;;;28.43;34.72;99476.63;1637030;87;21826;-80
2022/06/25 12:50:40;;;;;;;2.12;1.87;;;;;;;28.52;33.96;99473.75;1637077;87;21073;-81
2022/06/25 12:53:12;;;;;;;1.72;1.60;;;;;;;28.52;33.41;99481.04;1625471;88;21098;-81
2022/06/25 12:55:40;;;;;;;1.98;1.40;;;;;;;28.45;33.51;99480.03;1624971;88;22014;-80
2022/06/25 12:58:09;;;;;;;2.60;1.70;;;;;;;28.34;33.77;99483.42;1625404;88;21038;-82
2022/06/25 13:00:40;;;;;;;7.08;1.37;;;;;;;28.28;33.99;99480.55;1625201;88;21141;-80
2022/06/25 13:03:06;;;;;;;3.25;1.55;;;;;;;28.26;33.20;99482.55;1637213;87;21776;-82
2022/06/25 13:05:33;;;;;;;2.47;1.55;;;;;;;28.29;32.84;99475.45;1625269;88;21015;-80
2022/06/25 13:08:00;;;;;;;1.60;1.50;;;;;;;28.40;32.78;99492.71;1636952;87;21099;-80
2022/06/25 13:10:27;;;;;;;1.75;1.17;;;;;;;28.48;33.24;99491.36;1625398;88;21134;-80
2022/06/25 13:12:53;;;;;;;1.77;1.55;;;;;;;28.54;33.06;99493.37;1637253;87;21064;-81
2022/06/25 13:15:22;;;;;;;1.47;1.37;;;;;;;28.58;32.72;99490.36;1625018;88;21669;-80
2022/06/25 13:17:50;;;;;;;1.00;1.00;;;;;;;28.60;33.54;99488.36;1637123;87;21093;-80
2022/06/25 13:20:16;;;;;;;6.00;2.45;;;;;;;28.71;33.92;99487.50;1624262;88;21079;-82
2022/06/25 13:22:44;;;;;;;3.33;1.57;;;;;;;28.86;34.57;99484.07;1637250;87;21142;-80
2022/06/25 13:25:10;;;;;;;5.55;1.50;;;;;;;28.90;33.53;99487.62;1640641;86;21551;-80
2022/06/25 13:27:38;;;;;;;3.85;1.67;;;;;;;28.85;33.45;99492.71;1624644;88;21000;-80
2022/06/25 13:30:09;;;;;;;2.45;1.30;;;;;;;28.77;32.95;99500.01;1625247;88;21087;-81
2022/06/25 13:32:37;;;;;;;4.00;1.50;;;;;;;28.63;33.10;99498.33;1637002;86;21127;-80
2022/06/25 13:35:06;;;;;;;6.28;1.50;;;;;;;28.52;33.73;99490.00;1624125;88;21080;-80
2022/06/25 13:37:34;;;;;;;2.92;1.50;;;;;;;28.43;34.05;99490.16;1623575;88;21214;-82
2022/06/25 13:40:01;;;;;;;1.50;1.40;;;;;;;28.32;34.56;99488.65;1624174;88;21496;-83
2022/06/25 13:42:29;;;;;;;6.53;1.40;;;;;;;28.31;35.34;99481.53;1631818;87;21077;-79
2022/06/25 13:44:55;;;;;;;3.40;1.82;;;;;;;28.41;35.34;99482.23;1632454;87;21135;-81
2022/06/25 13:47:22;;;;;;;5.05;1.40;;;;;;;28.58;34.96;99475.47;1632201;87;21107;-81
2022/06/25 13:49:49;;;;;;;6.22;1.67;;;;;;;28.76;33.92;99484.77;1632232;87;21154;-81
2022/06/25 13:52:16;;;;;;;4.67;1.60;;;;;;;28.88;34.16;99482.89;1632151;87;21032;-82
2022/06/25 13:54:43;;;;;;;1.75;1.62;;;;;;;29.01;33.74;99485.56;1632075;87;21036;-80
2022/06/25 13:57:09;;;;;;;2.67;1.40;;;;;;;29.00;33.39;99482.51;1632375;87;21017;-80
2022/06/25 13:59:36;;;;;;;2.25;1.20;;;;;;;28.93;32.59;99489.13;1632192;87;21008;-82
2022/06/25 14:02:05;;;;;;;4.17;1.20;;;;;;;28.86;32.39;99488.13;1632232;87;21179;-80
2022/06/25 14:04:33;;;;;;;3.42;1.30;;;;;;;28.86;32.97;99481.36;1632151;87;21102;-81
2022/06/25 14:07:00;;;;;;;4.85;1.20;;;;;;;28.93;33.04;99484.23;1632151;87;21028;-80
2022/06/25 14:09:27;;;;;;;2.60;1.30;;;;;;;29.03;31.97;99481.68;1632015;87;21060;-80
2022/06/25 14:11:53;;;;;;;1.87;1.10;;;;;;;29.11;31.49;99482.15;1632270;87;20997;-79
2022/06/25 14:14:20;;;;;;;2.55;1.17;;;;;;;29.22;31.55;99479.11;1632101;87;22008;-81
2022/06/25 14:16:47;;;;;;;1.62;1.10;;;;;;;29.38;31.69;99481.41;1632256;87;21032;-81
2022/06/25 14:19:14;;;;;;;1.82;1.10;;;;;;;29.53;30.89;99474.22;1632273;87;21915;-82
2022/06/25 14:21:41;;;;;;;1.98;1.20;;;;;;;29.57;31.10;99480.13;1632490;87;21686;-81
2022/06/25 14:24:08;;;;;;;2.87;1.40;;;;;;;29.67;31.33;99467.20;1583951;89;21717;-80
2022/06/25 14:26:35;;;;;;;1.50;1.07;;;;;;;29.81;30.18;99475.14;1632292;86;22125;-82
2022/06/25 14:29:01;;;;;;;1.72;1.35;;;;;;;29.88;30.48;99473.39;1632385;87;21094;-80
2022/06/25 14:31:29;;;;;;;3.65;2.60;;;;;;;30.01;30.37;99480.95;1632277;87;21087;-82
2022/06/25 14:33:56;;;;;;;6.50;1.50;;;;;;;30.08;29.76;99481.91;1632215;87;22315;-79
2022/06/25 14:44:36;;;;;;;3.35;1.67;;;;;;;29.83;29.38;99490.71;1627003;88;20211;-80
2022/06/25 14:47:03;;;;;;;1.15;1.10;;;;;;;29.73;29.28;99492.78;1627152;88;21116;-81
2022/06/25 14:49:29;;;;;;;2.87;1.30;;;;;;;29.72;29.71;99491.91;1626773;88;22257;-80
2022/06/25 14:51:56;;;;;;;3.15;1.00;;;;;;;29.81;29.48;99490.05;1626947;88;22253;-80
2022/06/25 14:54:23;;;;;;;1.85;1.00;;;;;;;29.90;29.76;99488.13;1626866;88;21496;-80
2022/06/25 14:56:50;;;;;;;4.58;1.32;;;;;;;30.01;29.45;99481.78;1626893;88;21016;-79
2022/06/25 14:59:16;;;;;;;1.75;1.10;;;;;;;30.11;29.66;99491.05;1627299;88;21056;-80
2022/06/25 15:01:42;;;;;;;2.02;1.00;;;;;;;30.24;28.93;99489.06;1627103;88;21028;-79
2022/06/25 15:04:09;;;;;;;1.20;1.12;;;;;;;30.35;28.96;99488.65;1626863;88;21534;-80
2022/06/25 15:06:36;;;;;;;2.35;1.02;;;;;;;30.46;28.86;99491.98;1626890;88;21151;-79
2022/06/25 15:09:03;;;;;;;5.87;0.82;;;;;;;30.49;28.57;99494.34;1627008;88;21056;-80
2022/06/25 15:11:31;;;;;;;3.30;0.90;;;;;;;30.44;28.19;99499.48;1626772;88;21044;-80
2022/06/25 15:13:59;;;;;;;5.53;1.37;;;;;;;30.29;28.67;99496.67;1627051;88;21096;-79
2022/06/25 15:16:26;;;;;;;1.65;1.20;;;;;;;30.12;28.57;99498.66;1626708;88;21131;-79
2022/06/25 15:18:53;;;;;;;2.98;1.05;;;;;;;29.93;29.21;99494.04;1634363;86;21027;-79
2022/06/25 15:21:21;;;;;;;2.52;1.20;;;;;;;29.76;28.84;99487.00;1654878;86;21094;-81
2022/06/25 15:23:47;;;;;;;1.27;0.93;;;;;;;29.60;28.94;99486.56;1655093;86;21020;-81
2022/06/25 15:26:14;;;;;;;1.72;0.90;;;;;;;29.72;29.16;99487.84;1654975;86;21530;-81
2022/06/25 15:28:40;;;;;;;1.95;1.00;;;;;;;30.64;28.75;99484.88;1655088;86;21148;-80
2022/06/25 15:31:07;;;;;;;4.87;0.80;;;;;;;32.36;26.84;99477.31;1628451;86;21077;-82
2022/06/25 15:33:34;;;;;;;1.05;0.98;;;;;;;34.21;24.70;99475.52;1623019;86;21084;-81
2022/06/25 15:36:00;;;;;;;1.57;0.80;;;;;;;35.97;22.59;99473.08;1623224;88;21084;-81
2022/06/25 15:38:29;;;;;;;2.75;1.15;;;;;;;37.39;20.83;99473.02;1622925;88;21147;-81
2022/06/25 15:40:56;;;;;;;0.93;0.90;;;;;;;38.50;19.72;99468.61;1623164;86;22037;-81
2022/06/25 15:43:22;;;;;;;1.10;1.00;;;;;;;39.08;18.98;99468.37;1622733;88;21091;-80
2022/06/25 15:45:49;;;;;;;1.05;0.90;;;;;;;38.79;18.90;99466.33;1622913;88;22334;-79
2022/06/25 15:48:15;;;;;;;2.30;0.78;;;;;;;38.19;19.32;99474.18;1622947;88;21051;-80
2022/06/25 15:50:42;;;;;;;2.87;1.10;;;;;;;37.57;19.54;99477.66;1623223;88;21127;-80
2022/06/25 15:53:08;;;;;;;2.65;0.98;;;;;;;36.99;20.11;99480.61;1622980;88;21121;-81
2022/06/25 15:55:36;;;;;;;3.05;0.90;;;;;;;36.55;20.77;99478.38;1622993;88;22276;-80
2022/06/25 15:58:02;;;;;;;1.67;1.05;;;;;;;36.45;21.38;99486.26;1623430;88;22122;-80
2022/06/25 16:00:30;;;;;;;4.75;1.10;;;;;;;37.06;20.95;99490.68;1622818;88;22086;-81
2022/06/25 16:02:57;;;;;;;3.60;0.90;;;;;;;37.92;19.96;99477.84;1623205;88;21669;-81
2022/06/25 16:05:23;;;;;;;1.30;0.80;;;;;;;38.91;19.12;99479.25;1622982;88;21156;-82
2022/06/25 16:07:50;;;;;;;4.95;0.82;;;;;;;39.74;18.51;99482.69;1622842;88;21129;-82
2022/06/25 16:10:18;;;;;;;2.00;0.95;;;;;;;40.39;17.73;99480.61;1622882;88;21650;-82
2022/06/25 16:12:45;;;;;;;2.37;1.10;;;;;;;40.89;17.07;99482.53;1623085;88;21155;-81
2022/06/25 16:15:12;;;;;;;3.27;0.95;;;;;;;41.20;16.91;99488.46;1623083;88;21178;-78
2022/06/25 16:17:40;;;;;;;1.20;1.10;;;;;;;41.18;17.01;99483.75;1622882;86;22261;-81
2022/06/25 16:20:09;;;;;;;3.47;1.27;;;;;;;40.62;17.27;99488.71;1622957;88;21111;-81
2022/06/25 16:22:37;;;;;;;1.20;1.10;;;;;;;39.80;17.66;99490.53;1623150;88;21178;-81
2022/06/25 16:25:05;;;;;;;0.95;0.95;;;;;;;38.84;18.20;99489.00;1623000;88;21099;-82
2022/06/25 16:27:32;;;;;;;3.15;1.07;;;;;;;37.99;19.02;99494.22;1623077;88;21719;-82
2022/06/25 16:30:00;;;;;;;2.10;0.90;;;;;;;37.16;19.79;99501.96;1622985;88;21161;-81
2022/06/25 16:32:28;;;;;;;1.17;1.02;;;;;;;36.37;20.49;99502.97;1622804;88;21383;-82
2022/06/25 16:34:54;;;;;;;1.15;1.00;;;;;;;35.61;21.30;99495.02;1622960;88;21163;-82
2022/06/25 16:37:21;;;;;;;8.00;1.20;;;;;;;34.90;22.03;99500.77;1602461;88;21099;-80
2022/06/25 16:39:47;;;;;;;1.55;1.10;;;;;;;34.22;23.04;99503.98;1622967;88;21597;-80
2022/06/25 16:42:13;;;;;;;1.00;0.90;;;;;;;33.58;23.37;99510.66;1622736;86;21645;-78
2022/06/25 16:44:40;;;;;;;1.10;1.00;;;;;;;32.96;24.32;99516.47;1622924;88;21119;-82
2022/06/25 16:47:06;;;;;;;2.77;1.17;;;;;;;32.50;24.96;99513.67;1623057;88;21127;-81
2022/06/25 16:49:35;;;;;;;3.90;1.00;;;;;;;32.11;25.70;99514.97;1623016;88;21697;-81
2022/06/25 16:52:03;;;;;;;3.37;1.40;;;;;;;31.69;26.40;99519.77;1623355;88;21107;-82
2022/06/25 16:54:30;;;;;;;2.45;1.00;;;;;;;31.32;27.33;99521.06;1622916;88;21258;-81
2022/06/25 16:56:57;;;;;;;2.35;1.00;;;;;;;30.99;27.78;99513.25;1622912;88;21124;-82
2022/06/25 16:59:23;;;;;;;3.72;1.35;;;;;;;30.70;28.30;99517.58;1623150;88;21167;-82
2022/06/25 17:01:51;;;;;;;2.70;1.52;;;;;;;30.45;28.46;99521.54;1623178;88;21160;-81
2022/06/25 17:04:18;;;;;;;2.05;1.67;;;;;;;30.20;28.76;99523.03;1622933;88;21166;-82
2022/06/25 17:06:44;;;;;;;3.10;2.12;;;;;;;29.99;29.30;99527.24;1623087;88;21970;-82
2022/06/25 17:09:11;;;;;;;2.42;2.22;;;;;;;29.77;29.60;99529.38;1623212;88;21112;-80
2022/06/25 17:11:39;;;;;;;5.42;2.30;;;;;;;29.55;29.79;99530.98;1622996;88;21141;-81
2022/06/25 17:14:06;;;;;;;3.42;2.67;;;;;;;29.27;30.19;99534.98;1623182;88;21080;-83
2022/06/25 17:16:32;;;;;;;4.30;2.22;;;;;;;29.07;30.92;99537.70;1632267;86;21087;-81
2022/06/25 17:18:59;;;;;;;2.90;2.22;;;;;;;28.84;31.22;99532.15;1645290;87;21119;-81
2022/06/25 17:21:26;;;;;;;6.12;3.15;;;;;;;28.62;31.58;99536.39;1632876;86;21091;-83
2022/06/25 17:23:53;;;;;;;2.58;2.37;;;;;;;28.45;31.87;99528.75;1618576;88;21074;-82
2022/06/25 17:26:20;;;;;;;4.28;2.10;;;;;;;28.27;32.07;99537.01;1618896;88;21090;-81
2022/06/25 17:28:50;;;;;;;3.85;1.95;;;;;;;28.09;32.27;99538.01;1618885;88;21131;-83
2022/06/25 17:31:16;;;;;;;2.33;1.50;;;;;;;27.92;32.78;99540.28;1618804;88;21128;-77
2022/06/25 17:33:42;;;;;;;1.50;1.32;;;;;;;27.74;32.91;99541.73;1618940;88;21625;-81
2022/06/25 17:36:09;;;;;;;3.02;1.07;;;;;;;27.57;33.17;99535.41;1618648;88;21547;-82
2022/06/25 17:38:36;;;;;;;1.37;1.27;;;;;;;27.40;33.35;99541.25;1628344;87;22284;-80
2022/06/25 17:41:04;;;;;;;7.05;2.10;;;;;;;27.23;33.58;99537.10;1619465;87;21533;-83
2022/06/25 17:43:30;;;;;;;2.10;1.70;;;;;;;27.09;33.92;99544.94;1628086;88;22328;-81
2022/06/25 17:45:57;;;;;;;1.50;1.40;;;;;;;26.97;34.28;99545.20;1628229;88;21086;-81
2022/06/25 17:48:24;;;;;;;1.50;1.40;;;;;;;26.87;34.91;99552.03;1628102;88;21142;-81
2022/06/25 17:50:51;;;;;;;1.85;1.62;;;;;;;26.78;35.20;99553.48;1628160;88;21495;-79
2022/06/25 17:53:17;;;;;;;5.05;1.32;;;;;;;26.68;35.57;99556.29;1628251;88;21543;-77
2022/06/25 17:55:44;;;;;;;2.20;1.57;;;;;;;26.58;35.75;99553.64;1628317;88;21793;-79
2022/06/25 17:58:10;;;;;;;2.72;1.82;;;;;;;26.47;36.13;99550.66;1628303;88;21511;-80
2022/06/25 18:00:37;;;;;;;4.47;1.80;;;;;;;26.37;36.86;99545.84;1628568;88;21586;-80
2022/06/25 18:03:04;;;;;;;6.05;1.50;;;;;;;26.28;37.15;99550.33;1628235;88;21031;-81
2022/06/25 18:05:31;;;;;;;3.08;1.50;;;;;;;26.21;37.59;99556.47;1628189;88;21534;-81
2022/06/25 18:07:58;;;;;;;2.65;1.40;;;;;;;26.10;37.84;99558.90;1628347;88;21130;-81
2022/06/25 18:10:24;;;;;;;1.72;1.60;;;;;;;26.00;38.52;99556.77;1628501;88;21135;-81
2022/06/25 18:12:52;;;;;;;2.87;2.20;;;;;;;25.89;38.71;99570.77;1628423;88;21031;-81
2022/06/25 18:15:19;;;;;;;4.25;3.12;;;;;;;25.80;39.04;99571.66;1628202;88;21028;-79
2022/06/25 18:17:45;;;;;;;2.83;2.60;;;;;;;25.70;38.99;99564.13;1628486;88;21090;-80
2022/06/25 18:20:12;;;;;;;7.40;3.10;;;;;;;25.63;39.02;99573.81;1628220;88;21550;-79
2022/06/25 18:22:39;;;;;;;4.58;3.30;;;;;;;25.56;39.54;99571.70;1628356;88;21066;-80
2022/06/25 18:25:07;;;;;;;3.30;2.40;;;;;;;25.51;39.73;99579.89;1628418;88;21098;-81
2022/06/25 18:27:33;;;;;;;2.52;1.52;;;;;;;25.43;39.90;99577.92;1628356;88;22282;-81
2022/06/25 18:30:01;;;;;;;2.20;1.50;;;;;;;25.39;39.86;99581.91;1628710;88;21086;-80
2022/06/25 18:32:29;;;;;;;7.70;1.87;;;;;;;25.32;39.95;99578.12;1628255;88;21806;-83
2022/06/25 18:34:56;;;;;;;4.42;1.42;;;;;;;25.28;39.84;99584.78;1628553;88;21078;-81
2022/06/25 18:37:23;;;;;;;4.28;1.50;;;;;;;25.22;39.96;99591.06;1628353;88;21142;-80
2022/06/25 18:39:49;;;;;;;7.37;1.70;;;;;;;25.17;40.09;99592.51;1628627;88;21564;-82
2022/06/25 18:42:16;;;;;;;1.92;1.72;;;;;;;25.09;40.01;99598.60;1636646;86;21123;-81
2022/06/25 18:44:44;;;;;;;2.83;1.60;;;;;;;25.00;40.13;99594.10;1648790;85;22058;-81
2022/06/25 18:47:11;;;;;;;4.35;1.52;;;;;;;24.94;40.22;99602.74;1661494;86;21670;-81
2022/06/25 18:49:38;;;;;;;2.22;1.70;;;;;;;24.89;40.46;99610.39;1661292;86;21629;-81
2022/06/25 18:52:05;;;;;;;4.70;1.57;;;;;;;24.83;40.69;99604.59;1661068;86;21095;-80
2022/06/25 18:54:33;;;;;;;6.55;1.40;;;;;;;24.76;41.02;99611.52;1661253;86;21071;-82
2022/06/25 18:57:00;;;;;;;3.75;1.87;;;;;;;24.68;41.42;99611.41;1661533;84;21763;-81
2022/06/25 18:59:27;;;;;;;1.55;1.35;;;;;;;24.61;41.64;99618.31;1661261;86;21555;-80
2022/06/25 19:01:53;;;;;;;2.45;1.40;;;;;;;24.56;41.89;99612.51;1661216;86;22084;-80
2022/06/25 19:04:20;;;;;;;1.75;1.35;;;;;;;24.52;42.11;99617.80;1661575;86;22294;-81
2022/06/25 19:06:48;;;;;;;2.10;1.35;;;;;;;24.47;42.39;99620.39;1648816;86;21617;-81
2022/06/25 19:09:14;;;;;;;1.40;1.30;;;;;;;24.40;42.57;99621.95;1642814;86;21786;-82
2022/06/25 19:11:41;;;;;;;4.30;1.35;;;;;;;24.33;42.84;99618.13;1642109;87;22401;-82
2022/06/25 19:14:07;;;;;;;1.72;1.30;;;;;;;24.28;43.02;99623.08;1642578;87;21103;-81
2022/06/25 19:16:33;;;;;;;4.40;1.35;;;;;;;24.21;43.22;99620.56;1641367;85;21159;-81
2022/06/25 19:19:00;;;;;;;3.15;1.57;;;;;;;24.17;43.83;99628.55;1642329;87;21146;-81
2022/06/25 19:21:29;;;;;;;2.60;1.30;;;;;;;24.11;43.90;99620.06;1642217;87;21133;-82
2022/06/25 19:23:55;;;;;;;5.53;1.27;;;;;;;24.08;44.08;99618.14;1642259;87;21009;-82
2022/06/25 19:26:22;;;;;;;3.37;1.20;;;;;;;24.04;44.05;99623.42;1646201;85;21582;-79
2022/06/25 19:28:48;;;;;;;5.08;1.50;;;;;;;24.01;44.32;99615.66;1642009;86;21086;-82
2022/06/25 19:31:15;;;;;;;2.02;1.20;;;;;;;23.99;44.37;99616.26;1642395;86;21099;-82
2022/06/25 19:33:41;;;;;;;4.58;1.50;;;;;;;23.99;44.61;99621.64;1642323;87;21124;-82
2022/06/25 19:36:08;;;;;;;5.03;1.65;;;;;;;23.96;45.14;99618.75;1642057;86;21017;-82